createdAt,value
2023-02-22T00:01:51.339Z,14.73
2023-02-22T00:04:21.405Z,15.57
2023-02-22T00:06:50.869Z,15.45
2023-02-22T00:09:21.506Z,14.38
2023-02-22T00:11:50.239Z,15.60
2023-02-22T00:14:20.586Z,14.98
2023-02-22T00:16:51.703Z,14.93
2023-02-22T00:19:20.333Z,15.52
2023-02-22T00:21:53.963Z,15.05
2023-02-22T00:24:24.706Z,15.25
2023-02-22T00:26:55.596Z,15.95
2023-02-22T00:29:24.472Z,15.80
2023-02-22T00:31:54.151Z,15.23
2023-02-22T00:34:24.207Z,14.75
2023-02-22T00:36:55.113Z,14.07
2023-02-22T00:39:23.198Z,15.82
2023-02-22T00:41:51.254Z,15.27
2023-02-22T00:44:19.298Z,15.65
2023-02-22T00:46:47.482Z,14.70
2023-02-22T00:49:17.084Z,14.68
2023-02-22T00:51:45.182Z,13.80
2023-02-22T00:54:14.486Z,15.23
2023-02-22T00:56:42.549Z,15.43
2023-02-22T00:59:10.697Z,15.73
2023-02-22T01:01:38.820Z,15.13
2023-02-22T01:04:06.939Z,16.73
2023-02-22T01:06:36.404Z,15.93
2023-02-22T01:09:05.038Z,14.98
2023-02-22T01:11:33.107Z,16.23
2023-02-22T01:14:01.195Z,17.55
2023-02-22T01:16:29.372Z,18.08
2023-02-22T01:18:57.423Z,18.15
2023-02-22T01:21:25.489Z,18.42
2023-02-22T01:23:55.109Z,18.55
2023-02-22T01:26:23.235Z,17.48
2023-02-22T01:28:51.246Z,17.27
2023-02-22T01:31:19.594Z,18.75
2023-02-22T01:33:48.081Z,16.20
2023-02-22T01:36:16.599Z,17.25
2023-02-22T01:38:45.117Z,17.42
2023-02-22T01:41:18.568Z,16.20
2023-02-22T01:43:46.803Z,17.05
2023-02-22T01:46:23.309Z,16.73
2023-02-22T01:48:55.566Z,17.40
2023-02-22T01:51:26.451Z,16.10
2023-02-22T01:53:58.215Z,16.63
2023-02-22T01:56:30.836Z,15.17
2023-02-22T02:01:29.733Z,15.75
2023-02-22T02:04:00.075Z,16.35
2023-02-22T02:06:32.569Z,16.42
2023-02-22T02:09:06.136Z,15.80
2023-02-22T02:11:35.947Z,17.45
2023-02-22T02:14:04.129Z,16.95
2023-02-22T02:16:40.143Z,16.65
2023-02-22T02:19:16.092Z,15.82
2023-02-22T02:22:10.538Z,17.55
2023-02-22T02:25:18.230Z,16.85
2023-02-22T02:28:07.007Z,17.27
2023-02-22T02:31:03.555Z,18.88
2023-02-22T02:33:35.973Z,16.70
2023-02-22T02:36:13.737Z,18.35
2023-02-22T02:38:46.820Z,18.27
2023-02-22T02:43:54.629Z,17.55
2023-02-22T02:46:29.098Z,18.98
2023-02-22T02:49:01.680Z,19.02
2023-02-22T02:51:33.679Z,20.80
2023-02-22T02:54:04.264Z,19.70
2023-02-22T02:56:32.455Z,21.20
2023-02-22T02:59:00.497Z,21.25
2023-02-22T03:01:45.821Z,21.00
2023-02-22T03:04:25.520Z,19.98
2023-02-22T03:07:13.039Z,20.58
2023-02-22T03:09:58.521Z,19.73
2023-02-22T03:12:39.933Z,20.30
2023-02-22T03:15:21.981Z,20.83
2023-02-22T03:17:56.281Z,21.63
2023-02-22T03:20:32.655Z,21.90
2023-02-22T03:23:06.800Z,22.83
2023-02-22T03:25:41.370Z,21.17
2023-02-22T03:28:13.075Z,20.90
2023-02-22T03:30:46.243Z,21.33
2023-02-22T03:33:20.520Z,21.92
2023-02-22T03:35:56.948Z,21.85
2023-02-22T03:38:29.808Z,20.52
2023-02-22T03:43:35.428Z,20.55
2023-02-22T03:46:04.929Z,19.25
2023-02-22T03:48:39.044Z,21.13
2023-02-22T03:51:08.886Z,21.55
2023-02-22T03:53:38.197Z,20.23
2023-02-22T03:56:10.543Z,19.85
2023-02-22T03:58:44.091Z,20.52
2023-02-22T04:01:13.773Z,19.73
2023-02-22T04:03:42.825Z,18.33
2023-02-22T04:06:12.462Z,20.05
2023-02-22T04:08:40.569Z,20.35
2023-02-22T04:11:08.576Z,20.05
2023-02-22T04:13:36.681Z,20.80
2023-02-22T04:16:04.788Z,20.05
2023-02-22T04:18:32.928Z,19.58
2023-02-22T04:21:04.371Z,22.25
2023-02-22T04:23:33.880Z,22.60
2023-02-22T04:26:01.919Z,22.63
2023-02-22T04:28:30.031Z,21.58
2023-02-22T04:30:58.056Z,23.08
2023-02-22T04:33:26.258Z,21.33
2023-02-22T04:35:54.389Z,20.38
2023-02-22T04:38:22.465Z,22.10
2023-02-22T04:40:51.942Z,21.85
2023-02-22T04:43:23.292Z,24.00
2023-02-22T04:45:51.426Z,24.23
2023-02-22T04:48:19.489Z,22.05
2023-02-22T04:50:47.890Z,22.92
2023-02-22T04:53:15.910Z,24.33
2023-02-22T04:55:43.996Z,23.50
2023-02-22T04:58:13.544Z,25.45
2023-02-22T05:00:41.699Z,27.42
2023-02-22T05:03:09.994Z,27.05
2023-02-22T05:05:37.974Z,28.58
2023-02-22T05:08:06.239Z,28.27
2023-02-22T05:10:34.248Z,29.35
2023-02-22T05:13:04.096Z,28.05
2023-02-22T05:15:33.748Z,30.27
2023-02-22T05:18:01.846Z,27.77
2023-02-22T05:20:32.662Z,28.45
2023-02-22T05:23:02.861Z,31.38
2023-02-22T05:25:31.045Z,30.20
2023-02-22T05:28:00.802Z,31.70
2023-02-22T05:30:31.346Z,31.60
2023-02-22T05:33:00.860Z,30.77
2023-02-22T05:35:30.041Z,29.33
2023-02-22T05:38:03.255Z,33.17
2023-02-22T05:40:32.099Z,31.73
2023-02-22T05:43:00.847Z,30.00
2023-02-22T05:45:29.976Z,29.85
2023-02-22T05:47:58.521Z,29.67
2023-02-22T05:50:28.225Z,28.63
2023-02-22T05:52:56.766Z,26.80
2023-02-22T05:55:25.624Z,26.58
2023-02-22T05:57:54.195Z,27.42
2023-02-22T06:00:24.433Z,28.60
2023-02-22T06:02:56.801Z,27.48
2023-02-22T06:05:25.591Z,28.85
2023-02-22T06:07:55.673Z,29.00
2023-02-22T06:10:24.150Z,28.92
2023-02-22T06:12:52.907Z,29.42
2023-02-22T06:15:22.261Z,29.13
2023-02-22T06:17:50.788Z,28.48
2023-02-22T06:20:22.817Z,27.75
2023-02-22T06:22:51.696Z,27.83
2023-02-22T06:25:24.074Z,28.77
2023-02-22T06:27:52.545Z,26.50
2023-02-22T06:30:23.455Z,24.45
2023-02-22T06:32:51.907Z,25.60
2023-02-22T06:35:20.679Z,24.13
2023-02-22T06:37:48.826Z,25.67
2023-02-22T06:40:17.583Z,24.55
2023-02-22T06:42:49.050Z,25.92
2023-02-22T06:45:18.187Z,24.10
2023-02-22T06:47:46.450Z,27.55
2023-02-22T06:50:22.449Z,25.40
2023-02-22T06:52:50.655Z,26.35
2023-02-22T06:55:20.256Z,26.92
2023-02-22T06:57:49.817Z,28.13
2023-02-22T07:00:19.887Z,26.83
2023-02-22T07:02:49.333Z,26.23
2023-02-22T07:05:19.083Z,27.05
2023-02-22T07:07:47.524Z,29.52
2023-02-22T07:10:20.641Z,28.17
2023-02-22T07:12:52.513Z,27.55
2023-02-22T07:15:22.563Z,26.10
2023-02-22T07:17:50.843Z,24.90
2023-02-22T07:20:20.719Z,25.00
2023-02-22T07:22:49.202Z,25.38
2023-02-22T07:25:17.758Z,25.15
2023-02-22T07:27:46.149Z,25.90
2023-02-22T07:30:19.992Z,24.83
2023-02-22T07:32:48.744Z,24.80
2023-02-22T07:35:18.576Z,24.88
2023-02-22T07:37:48.221Z,25.65
2023-02-22T07:40:18.091Z,25.08
2023-02-22T07:42:57.015Z,25.42
2023-02-22T07:45:28.364Z,25.73
2023-02-22T07:47:56.807Z,25.23
2023-02-22T07:50:26.587Z,25.25
2023-02-22T07:52:56.446Z,24.55
2023-02-22T07:55:27.203Z,24.08
2023-02-22T07:57:57.914Z,23.48
2023-02-22T08:00:29.494Z,23.77
2023-02-22T08:02:58.010Z,23.85
2023-02-22T08:05:28.007Z,24.23
2023-02-22T08:07:59.164Z,21.48
2023-02-22T08:10:28.519Z,23.00
2023-02-22T08:12:57.017Z,24.92
2023-02-22T08:15:29.643Z,22.30
2023-02-22T08:20:26.363Z,23.35
2023-02-22T08:22:55.107Z,22.38
2023-02-22T08:25:28.279Z,21.88
2023-02-22T08:28:01.252Z,23.38
2023-02-22T08:30:32.487Z,22.17
2023-02-22T08:33:02.512Z,22.35
2023-02-22T08:35:31.868Z,22.40
2023-02-22T08:38:06.287Z,23.90
2023-02-22T08:40:36.746Z,22.10
2023-02-22T08:43:06.645Z,23.30
2023-02-22T08:45:36.229Z,23.45
2023-02-22T08:48:04.628Z,23.05
2023-02-22T08:50:34.185Z,21.52
2023-02-22T08:53:03.975Z,22.75
2023-02-22T08:55:34.792Z,23.50
2023-02-22T08:58:04.004Z,22.48
2023-02-22T09:00:33.951Z,23.65
2023-02-22T09:03:04.903Z,23.38
2023-02-22T09:05:33.851Z,24.05
2023-02-22T09:08:02.349Z,25.25
2023-02-22T09:10:32.880Z,22.73
2023-02-22T09:13:02.390Z,23.38
2023-02-22T09:15:31.015Z,23.50
2023-02-22T09:17:59.164Z,23.65
2023-02-22T09:20:29.336Z,24.23
2023-02-22T09:22:58.064Z,26.25
2023-02-22T09:25:27.211Z,23.98
2023-02-22T09:27:58.500Z,24.52
2023-02-22T09:30:32.148Z,23.85
2023-02-22T09:33:02.553Z,23.83
2023-02-22T09:35:36.144Z,22.08
2023-02-22T09:38:07.315Z,23.45
2023-02-22T09:40:44.812Z,23.48
2023-02-22T09:43:35.852Z,23.92
2023-02-22T09:46:19.397Z,23.25
2023-02-22T09:48:59.389Z,21.20
2023-02-22T09:51:35.837Z,21.35
2023-02-22T09:54:07.636Z,22.42
2023-02-22T09:56:36.511Z,21.73
2023-02-22T09:59:08.919Z,21.83
2023-02-22T10:01:43.467Z,23.70
2023-02-22T10:04:18.727Z,21.80
2023-02-22T10:07:06.779Z,21.02
2023-02-22T10:09:39.705Z,21.58
2023-02-22T10:12:12.986Z,20.55
2023-02-22T10:15:25.071Z,20.48
2023-02-22T10:18:00.561Z,21.02
2023-02-22T10:20:43.790Z,20.65
2023-02-22T10:23:22.999Z,21.15
2023-02-22T10:25:57.418Z,19.50
2023-02-22T10:28:31.048Z,20.02
2023-02-22T10:31:03.426Z,19.45
2023-02-22T10:33:34.976Z,21.20
2023-02-22T10:36:03.736Z,20.95
2023-02-22T10:38:34.977Z,19.70
2023-02-22T10:41:17.614Z,21.90
2023-02-22T10:43:46.070Z,21.73
2023-02-22T10:46:18.954Z,21.60
2023-02-22T10:48:51.454Z,20.42
2023-02-22T10:51:19.635Z,21.23
2023-02-22T10:53:59.149Z,23.67
2023-02-22T10:56:29.062Z,22.23
2023-02-22T10:58:59.723Z,21.58
2023-02-22T11:01:36.336Z,21.05
2023-02-22T11:04:13.492Z,20.85
2023-02-22T11:06:44.465Z,22.27
2023-02-22T11:09:17.968Z,20.58
2023-02-22T11:11:47.989Z,19.00
2023-02-22T11:14:28.982Z,21.00
2023-02-22T11:16:58.682Z,20.40
2023-02-22T11:19:29.345Z,19.73
2023-02-22T11:22:00.530Z,20.55
2023-02-22T11:24:43.592Z,19.33
2023-02-22T11:27:26.522Z,17.30
2023-02-22T11:29:54.724Z,18.33
2023-02-22T11:32:25.771Z,18.67
2023-02-22T11:35:08.309Z,19.08
2023-02-22T11:37:38.335Z,18.58
2023-02-22T11:40:18.459Z,18.42
2023-02-22T11:42:47.305Z,18.67
2023-02-22T11:45:21.431Z,18.45
2023-02-22T11:47:53.742Z,20.58
2023-02-22T11:50:29.289Z,18.42
2023-02-22T11:53:11.046Z,19.55
2023-02-22T11:55:51.101Z,17.63
2023-02-22T11:58:36.766Z,18.88
2023-02-22T12:01:17.249Z,17.60
2023-02-22T12:04:10.725Z,18.25
2023-02-22T12:06:51.407Z,19.38
2023-02-22T12:09:28.970Z,17.70
2023-02-22T12:12:09.066Z,16.63
2023-02-22T12:14:45.343Z,17.38
2023-02-22T12:17:26.817Z,17.50
2023-02-22T12:20:01.740Z,18.02
2023-02-22T12:22:34.699Z,16.80
2023-02-22T12:25:14.671Z,17.50
2023-02-22T12:27:49.294Z,17.52
2023-02-22T12:30:23.792Z,17.45
2023-02-22T12:32:55.058Z,16.35
2023-02-22T12:35:27.107Z,18.25
2023-02-22T12:38:04.209Z,16.95
2023-02-22T12:40:38.437Z,17.98
2023-02-22T12:43:17.339Z,16.70
2023-02-22T12:45:50.366Z,16.52
2023-02-22T12:48:32.676Z,16.75
2023-02-22T12:51:08.546Z,17.05
2023-02-22T12:53:40.256Z,17.02
2023-02-22T12:56:21.556Z,17.38
2023-02-22T12:58:56.700Z,15.05
2023-02-22T13:01:30.122Z,17.40
2023-02-22T13:04:00.713Z,16.30
2023-02-22T13:06:41.814Z,16.52
2023-02-22T13:09:37.464Z,16.63
2023-02-22T13:12:10.658Z,17.15
2023-02-22T13:14:59.141Z,16.92
2023-02-22T13:17:34.473Z,16.27
2023-02-22T13:20:08.788Z,15.60
2023-02-22T13:22:44.559Z,15.55
2023-02-22T13:25:16.752Z,15.43
2023-02-22T13:27:49.974Z,16.13
2023-02-22T13:30:25.382Z,15.45
2023-02-22T13:33:17.086Z,15.25
2023-02-22T13:36:10.025Z,15.30
2023-02-22T13:39:17.361Z,16.70
2023-02-22T13:41:56.248Z,14.45
2023-02-22T13:44:38.634Z,15.82
2023-02-22T13:47:26.445Z,15.35
2023-02-22T13:50:11.288Z,15.70
2023-02-22T13:52:41.773Z,15.40
2023-02-22T13:55:19.138Z,15.27
2023-02-22T13:57:50.926Z,16.55
2023-02-22T14:00:25.854Z,15.90
2023-02-22T14:03:06.852Z,15.80
2023-02-22T14:05:53.763Z,16.25
2023-02-22T14:08:44.045Z,15.02
2023-02-22T14:11:52.166Z,15.90
2023-02-22T14:14:20.639Z,15.60
2023-02-22T14:17:30.992Z,15.65
2023-02-22T14:20:14.792Z,15.52
2023-02-22T14:22:44.424Z,15.88
2023-02-22T14:25:33.885Z,16.60
2023-02-22T14:28:03.398Z,15.20
2023-02-22T14:30:33.966Z,16.05
2023-02-22T14:33:02.968Z,16.30
2023-02-22T14:35:49.368Z,16.45
2023-02-22T14:38:21.630Z,17.20
2023-02-22T14:40:52.661Z,17.52
2023-02-22T14:43:24.862Z,18.15
2023-02-22T14:45:56.083Z,16.80
2023-02-22T14:48:37.402Z,17.50
2023-02-22T14:51:21.376Z,16.90
2023-02-22T14:53:54.950Z,17.77
2023-02-22T14:56:26.636Z,16.92
2023-02-22T14:58:59.641Z,18.48
2023-02-22T15:01:47.525Z,18.13
2023-02-22T15:04:22.477Z,18.33
2023-02-22T15:06:52.370Z,18.23
2023-02-22T15:09:27.637Z,17.60
2023-02-22T15:12:13.974Z,18.65
2023-02-22T15:14:44.714Z,17.67
2023-02-22T15:17:19.849Z,16.85
2023-02-22T15:19:49.755Z,17.98
2023-02-22T15:22:24.036Z,17.50
2023-02-22T15:25:00.456Z,16.83
2023-02-22T15:27:29.474Z,15.10
2023-02-22T15:30:04.756Z,17.00
2023-02-22T15:32:36.401Z,16.17
2023-02-22T15:35:27.377Z,16.98
2023-02-22T15:38:06.217Z,17.10
2023-02-22T15:40:36.050Z,16.35
2023-02-22T15:43:08.594Z,16.50
2023-02-22T15:45:43.027Z,16.50
2023-02-22T15:48:12.395Z,17.00
2023-02-22T15:50:40.485Z,17.95
2023-02-22T15:53:26.475Z,16.83
2023-02-22T15:55:58.954Z,17.48
2023-02-22T15:58:30.112Z,17.92
2023-02-22T16:01:02.769Z,16.50
2023-02-22T16:06:12.565Z,16.10
2023-02-22T16:08:54.771Z,16.42
2023-02-22T16:11:30.146Z,17.17
2023-02-22T16:14:02.016Z,15.85
2023-02-22T16:16:33.264Z,16.70
2023-02-22T16:19:38.043Z,16.35
2023-02-22T16:22:13.750Z,17.02
2023-02-22T16:24:43.274Z,16.77
2023-02-22T16:27:20.070Z,17.27
2023-02-22T16:30:18.733Z,17.02
2023-02-22T16:35:19.622Z,17.02
2023-02-22T16:37:49.790Z,17.58
2023-02-22T16:40:24.790Z,16.17
2023-02-22T16:42:53.010Z,15.77
2023-02-22T16:45:22.213Z,15.88
2023-02-22T16:47:52.670Z,17.63
2023-02-22T16:50:21.868Z,16.88
2023-02-22T16:52:49.989Z,16.45
2023-02-22T16:55:20.554Z,17.73
2023-02-22T16:57:51.321Z,16.75
2023-02-22T17:00:31.070Z,16.55
2023-02-22T17:03:02.544Z,16.67
2023-02-22T17:05:31.421Z,17.23
2023-02-22T17:07:59.490Z,18.58
2023-02-22T17:10:27.927Z,17.90
2023-02-22T17:12:57.736Z,17.80
2023-02-22T17:15:27.641Z,17.38
2023-02-22T17:17:57.628Z,16.40
2023-02-22T17:20:30.226Z,17.02
2023-02-22T17:22:59.362Z,16.85
2023-02-22T17:25:30.898Z,17.48
2023-02-22T17:28:01.374Z,16.92
2023-02-22T17:30:31.370Z,18.10
2023-02-22T17:33:03.656Z,18.65
2023-02-22T17:35:36.319Z,19.20
2023-02-22T17:38:06.305Z,19.58
2023-02-22T17:40:35.210Z,19.75
2023-02-22T17:43:08.086Z,19.50
2023-02-22T17:45:39.268Z,18.13
2023-02-22T17:48:08.843Z,18.85
2023-02-22T17:50:38.155Z,20.13
2023-02-22T17:53:10.934Z,21.52
2023-02-22T17:55:40.678Z,21.40
2023-02-22T17:58:14.825Z,20.98
2023-02-22T18:00:48.412Z,21.58
2023-02-22T18:03:21.595Z,20.35
2023-02-22T18:05:51.499Z,22.10
2023-02-22T18:08:21.435Z,22.10
2023-02-22T18:10:52.688Z,22.40
2023-02-22T18:13:22.827Z,21.88
2023-02-22T18:15:50.972Z,22.77
2023-02-22T18:18:19.352Z,21.88
2023-02-22T18:20:51.500Z,22.30
2023-02-22T18:23:22.395Z,22.42
2023-02-22T18:26:09.190Z,23.00
2023-02-22T18:28:40.292Z,21.15
2023-02-22T18:31:09.594Z,23.00
2023-02-22T18:33:37.781Z,23.30
2023-02-22T18:36:06.562Z,25.45
2023-02-22T18:38:34.610Z,24.95
2023-02-22T18:41:04.417Z,25.27
2023-02-22T18:43:34.401Z,24.33
2023-02-22T18:46:11.935Z,26.33
2023-02-22T18:48:40.915Z,26.25
2023-02-22T18:51:11.356Z,25.92
2023-02-22T18:56:17.910Z,25.63
2023-02-22T18:58:46.294Z,25.77
2023-02-22T19:01:19.571Z,26.95
2023-02-22T19:03:48.151Z,28.95
2023-02-22T19:06:18.219Z,28.58
2023-02-22T19:08:50.691Z,29.10
2023-02-22T19:11:21.842Z,31.33
2023-02-22T19:13:51.462Z,29.77
2023-02-22T19:16:22.928Z,31.27
2023-02-22T19:18:52.803Z,33.97
2023-02-22T19:21:21.862Z,32.90
2023-02-22T19:23:50.332Z,36.22
2023-02-22T19:26:24.102Z,35.45
2023-02-22T19:28:53.317Z,36.25
2023-02-22T19:31:29.663Z,38.25
2023-02-22T19:34:02.519Z,36.60
2023-02-22T19:36:30.672Z,37.58
2023-02-22T19:39:01.670Z,40.38
2023-02-22T19:41:30.806Z,38.58
2023-02-22T19:43:59.607Z,40.03
2023-02-22T19:46:29.531Z,39.92
2023-02-22T19:48:57.778Z,40.72
2023-02-22T19:51:27.954Z,41.38
2023-02-22T19:53:59.187Z,40.70
2023-02-22T19:56:28.473Z,42.42
2023-02-22T19:58:58.772Z,39.28
2023-02-22T20:01:30.358Z,40.00
2023-02-22T20:04:00.298Z,42.95
2023-02-22T20:09:03.700Z,39.05
2023-02-22T20:11:31.983Z,41.10
2023-02-22T20:14:01.991Z,41.60
2023-02-22T20:16:31.502Z,40.50
2023-02-22T20:18:59.997Z,41.35
2023-02-22T20:21:31.232Z,40.28
2023-02-22T20:23:59.406Z,42.40
2023-02-22T20:26:29.436Z,41.67
2023-02-22T20:28:58.253Z,43.38
2023-02-22T20:31:29.658Z,41.90
2023-02-22T20:34:01.038Z,42.58
2023-02-22T20:36:34.820Z,42.28
2023-02-22T20:39:03.203Z,41.80
2023-02-22T20:41:35.352Z,42.13
2023-02-22T20:44:06.975Z,43.42
2023-02-22T20:46:36.791Z,43.00
2023-02-22T20:49:11.203Z,42.87
2023-02-22T20:51:40.556Z,44.30
2023-02-22T20:54:11.707Z,44.65
2023-02-22T20:56:41.910Z,43.63
2023-02-22T20:59:13.022Z,45.45
2023-02-22T21:01:41.260Z,47.45
2023-02-22T21:04:12.087Z,46.42
2023-02-22T21:06:41.627Z,46.95
2023-02-22T21:09:14.205Z,45.75
2023-02-22T21:11:46.661Z,45.70
2023-02-22T21:14:19.746Z,44.53
2023-02-22T21:16:52.430Z,45.75
2023-02-22T21:19:26.544Z,45.53
2023-02-22T21:21:56.050Z,45.22
2023-02-22T21:24:25.334Z,48.25
2023-02-22T21:26:58.687Z,45.35
2023-02-22T21:29:27.652Z,45.85
2023-02-22T21:31:55.950Z,45.28
2023-02-22T21:34:26.244Z,44.47
2023-02-22T21:36:54.546Z,45.88
2023-02-22T21:39:22.878Z,45.78
2023-02-22T21:41:53.245Z,44.80
2023-02-22T21:44:22.141Z,41.38
2023-02-22T21:46:50.142Z,44.58
2023-02-22T21:49:18.826Z,44.10
2023-02-22T21:51:48.228Z,46.42
2023-02-22T21:54:16.928Z,44.83
2023-02-22T21:56:45.065Z,42.50
2023-02-22T21:59:14.948Z,45.22
2023-02-22T22:01:47.163Z,46.30
2023-02-22T22:04:18.940Z,44.35
2023-02-22T22:06:50.918Z,44.03
2023-02-22T22:09:23.539Z,45.65
2023-02-22T22:14:24.188Z,43.60
2023-02-22T22:16:54.767Z,43.55
2023-02-22T22:19:23.013Z,43.47
2023-02-22T22:21:55.515Z,42.90
2023-02-22T22:24:24.151Z,44.17
2023-02-22T22:26:55.456Z,43.45
2023-02-22T22:29:24.472Z,44.45
2023-02-22T22:31:53.268Z,43.85
2023-02-22T22:34:24.334Z,44.65
2023-02-22T22:36:58.123Z,43.92
2023-02-22T22:39:26.946Z,44.63
2023-02-22T22:41:57.765Z,44.80
2023-02-22T22:44:32.653Z,43.50
2023-02-22T22:47:01.061Z,43.90
2023-02-22T22:49:33.575Z,43.85
2023-02-22T22:52:03.002Z,42.50
2023-02-22T22:54:31.042Z,42.92
2023-02-22T22:56:59.058Z,43.25
2023-02-22T22:59:27.813Z,42.83
2023-02-22T23:01:56.736Z,42.90
2023-02-22T23:04:25.503Z,44.97
2023-02-22T23:06:55.622Z,43.45
2023-02-22T23:09:27.003Z,41.83
2023-02-22T23:11:56.816Z,40.95
2023-02-22T23:14:26.985Z,39.75
2023-02-22T23:16:59.859Z,41.45
2023-02-22T23:19:27.999Z,44.05
2023-02-22T23:21:56.153Z,42.83
2023-02-22T23:24:27.548Z,43.28
2023-02-22T23:27:00.308Z,43.08
2023-02-22T23:31:58.759Z,39.35
2023-02-22T23:34:29.050Z,39.88
2023-02-22T23:36:57.248Z,43.17
2023-02-22T23:39:27.342Z,41.22
2023-02-22T23:41:59.229Z,41.80
2023-02-22T23:44:28.079Z,41.88
2023-02-22T23:46:56.446Z,40.90
2023-02-22T23:49:26.495Z,44.35
2023-02-22T23:51:55.702Z,43.80
2023-02-22T23:54:24.832Z,42.17
2023-02-22T23:56:57.260Z,42.65
2023-02-22T23:59:26.933Z,41.40
